メインページ
METAR-TAF:

METAR-TAF

空港 :

ヤクーツク空港

ヤクーツク, ロシア

緯度: 62-01N, 経度: 129-43E, 海抜: 103m

現時点の気象観測

当レポートは24分前の23:30(UTC)に作成
無風
気温 19°C
湿度 83%
気圧 1005 hPa
視程10km以上
高度5000ftの雲はほとんどない, 積乱雲.

METAR: UEEE 162330Z 00000MPS 9999 FEW050CB 19/16 Q1005 R23L/09//60 NOSIG RMK QFE745

時間: 08:54 (23:54 UTC)

予報

当レポートは54分前の23:00(UTC)に作成
予報は17日の 00時(UTC)から 18日の 06時(UTC)まで有効
北西の風 6kt、最大16ktの突風を伴う
視程: 3200m
高度3000ftの雲は散在している, 積乱雲.
高度8000ftの曇り
17日の 00時(UTC)から 17日の 12時(UTC)まで一時的に
変向風 27kt
視程: 2100m
激しい雷雨, 小雨, 煙霧

TAF: UEEE 162300Z 1700/1806 32003G08MPS 3200 FU SCT030CB OVC080 TEMPO 1700/1712 VRB14MPS 2100 -TSRA HZ

4,000以上の空港の気象観測と天気予報(METAR報とTAF報)

利用可能な観測所は地図上に黄色い丸と赤い丸で示す。

丸の上にカーソルを重ねると観測所名を参照できる。

次にクリックすると気象観測と天気予報を参照できる。

マップの切り替え:黒色「×」印の緑ボタンをクリックして拡大、「-」印の緑ボタンをクリックして縮小、緑色の三角印をクリックして隣りの地図に切り替え


METAR-TAF: